Averill, Vermont
Current Conditions -  °F | °C
As of 8:15 PM on Tuesday 27 Jan 2015 (Local Time) from KEFK Reporting Station
Light Snow Light Snow  
Wind Chill: -12°   Ceiling: 1800
Heat Index:   Visibility: 3mi
Dew Point:   Wind: 16mph
Humidity: 79%   Direction: 340°NNW
Pressure: 29.84"   Gusts: NA
Location:  45°N, 71.71°W
Report Text: KEFK 280115Z AUTO 34014KT 3SM -SN OVC018 M14/M17 A2984 RMK AO2 T11411170
Loading
Personal Weather Stations






























Interactive Weather Map New forecast layout! Learn more

10-Day Weather Forecast

Advertisements
Track Severe Weather on mobile